Time;durP1;ratioP1;P1;durP2;ratioP2;P2;SDS_P1;SDS_P2;PMS_P1;PMS_P2;Temp;Humidity;BMP_temperature;BMP_pressure;BME280_temperature;BME280_humidity;BME280_pressure;Samples;Min_cycle;Max_cycle;Signal;HPM_P1;HPM_P2
2022/05/30 00:01:07;;;;;;;6.33;5.83;;;6.30;99.90;;;;;;4993829;28;20251;-76
2022/05/30 00:03:34;;;;;;;6.03;5.53;;;6.20;99.90;;;;;;4992405;28;20205;-76
2022/05/30 00:06:01;;;;;;;6.23;5.83;;;6.20;99.90;;;;;;4994021;28;20194;-76
2022/05/30 00:08:29;;;;;;;7.47;6.73;;;6.10;99.90;;;;;;4992811;28;20256;-75
2022/05/30 00:10:56;;;;;;;6.97;6.47;;;6.20;99.90;;;;;;4992579;28;20201;-76
2022/05/30 00:13:22;;;;;;;6.30;5.80;;;6.10;99.90;;;;;;4992412;28;20205;-76
2022/05/30 00:15:49;;;;;;;6.40;5.93;;;6.10;99.90;;;;;;4993483;28;20193;-76
2022/05/30 00:18:16;;;;;;;6.63;6.13;;;6.10;99.90;;;;;;4993530;28;20217;-75
2022/05/30 00:20:47;;;;;;;7.83;7.10;;;6.00;99.90;;;;;;4993465;28;20280;-76
2022/05/30 00:23:14;;;;;;;7.43;6.83;;;6.10;99.90;;;;;;4992337;28;20197;-76
2022/05/30 00:25:43;;;;;;;7.80;7.23;;;6.00;99.90;;;;;;4992326;28;20213;-77
2022/05/30 00:28:10;;;;;;;6.90;6.40;;;6.00;99.90;;;;;;4992418;28;20769;-76
2022/05/30 00:30:38;;;;;;;7.40;6.80;;;5.90;99.90;;;;;;4992010;28;20217;-75
2022/05/30 00:33:05;;;;;;;7.73;7.03;;;5.90;99.90;;;;;;4995115;28;20209;-75
2022/05/30 00:35:31;;;;;;;7.30;6.80;;;5.90;99.90;;;;;;4993193;28;20722;-76
2022/05/30 00:37:58;;;;;;;7.13;6.63;;;5.90;99.90;;;;;;4993502;28;20216;-76
2022/05/30 00:40:25;;;;;;;7.70;7.10;;;5.80;99.90;;;;;;4993221;28;20264;-76
2022/05/30 00:42:54;;;;;;;8.13;7.53;;;5.90;99.90;;;;;;4993087;28;20198;-76
2022/05/30 00:45:20;;;;;;;7.80;7.20;;;5.90;99.90;;;;;;4993195;28;20287;-77
2022/05/30 00:47:48;;;;;;;7.53;7.03;;;5.90;99.90;;;;;;4991969;28;20194;-76
2022/05/30 00:50:15;;;;;;;7.23;6.73;;;5.90;99.90;;;;;;4991795;28;20197;-75
2022/05/30 00:52:45;;;;;;;7.30;6.70;;;5.90;99.90;;;;;;4991749;28;20201;-76
2022/05/30 00:55:16;;;;;;;7.50;6.80;;;5.90;99.90;;;;;;4993014;28;20287;-75
2022/05/30 00:57:45;;;;;;;6.83;6.33;;;5.90;99.90;;;;;;4992805;28;20198;-76
2022/05/30 01:00:17;;;;;;;6.80;6.30;;;5.80;99.90;;;;;;4992731;28;20615;-76
2022/05/30 01:06:30;;;;;;;7.90;7.30;;;5.80;99.90;;;;;;4991238;28;20194;-76
2022/05/30 01:08:18;;;;;;;7.90;7.30;;;5.80;99.90;;;;;;4988993;28;20189;-76
2022/05/30 01:10:45;;;;;;;7.30;6.80;;;5.80;99.90;;;;;;4992503;28;20201;-76
2022/05/30 01:13:13;;;;;;;7.20;6.70;;;5.80;99.90;;;;;;4992739;28;20201;-76
2022/05/30 01:15:41;;;;;;;7.10;6.60;;;5.70;99.90;;;;;;4991395;28;20220;-76
2022/05/30 01:18:13;;;;;;;7.03;6.47;;;5.70;99.90;;;;;;4991284;28;20384;-76
2022/05/30 01:20:58;;;;;;;6.60;6.10;;;5.70;99.90;;;;;;4983735;28;20229;-76
2022/05/30 01:23:40;;;;;;;3.93;3.53;;;5.70;99.90;;;;;;4991091;28;20205;-76
2022/05/30 01:26:43;;;;;;;3.80;3.50;;;5.70;99.90;;;;;;4991387;28;20201;-76
2022/05/30 01:29:16;;;;;;;4.60;4.03;;;5.70;99.90;;;;;;4991202;28;20674;-76
2022/05/30 01:31:44;;;;;;;3.90;3.60;;;5.70;99.90;;;;;;4990896;28;20201;-76
2022/05/30 01:34:10;;;;;;;6.50;6.00;;;5.60;99.90;;;;;;4999366;28;20218;-73
2022/05/30 01:36:38;;;;;;;6.97;6.47;;;5.60;99.90;;;;;;4983397;28;20244;-75
2022/05/30 01:39:06;;;;;;;5.83;5.37;;;5.50;99.90;;;;;;4991075;28;20572;-76
2022/05/30 01:41:41;;;;;;;7.60;5.60;;;5.50;99.90;;;;;;4984742;28;20201;-76
2022/05/30 01:44:08;;;;;;;7.07;6.57;;;5.50;99.90;;;;;;4990869;28;20221;-76
2022/05/30 01:46:37;;;;;;;7.20;6.60;;;5.50;99.90;;;;;;4990759;28;20628;-76
2022/05/30 01:49:05;;;;;;;6.90;6.40;;;5.40;99.90;;;;;;4990856;28;20675;-76
2022/05/30 01:51:32;;;;;;;4.90;4.40;;;5.40;99.90;;;;;;4990719;28;20252;-76
2022/05/30 01:54:03;;;;;;;4.40;4.00;;;5.40;99.90;;;;;;4990843;28;20225;-76
2022/05/30 01:56:36;;;;;;;4.70;4.20;;;5.40;99.90;;;;;;4992271;28;20225;-76
2022/05/30 01:59:04;;;;;;;4.30;3.90;;;5.40;99.90;;;;;;4990705;28;20307;-76
2022/05/30 02:01:44;;;;;;;4.40;4.00;;;5.40;99.90;;;;;;4984579;28;20675;-76
2022/05/30 02:04:13;;;;;;;4.00;3.63;;;5.40;99.90;;;;;;4990680;28;20605;-76
2022/05/30 02:06:40;;;;;;;4.03;3.63;;;5.30;99.90;;;;;;4990892;28;20200;-76
2022/05/30 02:09:07;;;;;;;4.93;4.33;;;5.30;99.90;;;;;;4990765;28;20197;-75
2022/05/30 02:11:35;;;;;;;4.17;3.90;;;5.20;99.90;;;;;;4990684;28;20202;-76
2022/05/30 02:14:20;;;;;;;4.43;4.03;;;5.20;99.90;;;;;;4990647;28;20217;-76
2022/05/30 02:17:04;;;;;;;6.07;4.80;;;5.10;99.90;;;;;;4990620;28;20194;-76
2022/05/30 02:19:34;;;;;;;4.37;4.03;;;5.10;99.90;;;;;;4990583;28;20229;-76
2022/05/30 02:22:07;;;;;;;5.20;4.70;;;5.10;99.90;;;;;;4994961;28;20678;-76
2022/05/30 02:24:34;;;;;;;5.43;4.33;;;5.10;99.90;;;;;;4990519;28;20225;-75
2022/05/30 02:27:01;;;;;;;4.93;4.00;;;5.10;99.90;;;;;;4990748;28;20202;-76
2022/05/30 02:29:27;;;;;;;4.80;4.30;;;5.10;99.90;;;;;;4990460;28;20582;-76
2022/05/30 02:32:01;;;;;;;4.20;3.90;;;5.00;99.90;;;;;;4991252;28;20224;-76
2022/05/30 02:37:13;;;;;;;5.00;4.50;;;5.00;99.90;;;;;;4998493;28;20201;-77
2022/05/30 02:39:41;;;;;;;4.63;4.23;;;5.00;99.90;;;;;;4992003;28;20690;-75
2022/05/30 02:42:31;;;;;;;4.40;4.10;;;5.00;99.90;;;;;;4995039;28;20373;-76
2022/05/30 02:45:00;;;;;;;4.30;3.90;;;5.00;99.90;;;;;;4993795;28;20221;-77
2022/05/30 02:47:28;;;;;;;4.23;3.93;;;4.90;99.90;;;;;;4999636;28;20197;-77
2022/05/30 02:50:04;;;;;;;4.73;4.20;;;4.90;99.90;;;;;;4996271;28;20201;-77
2022/05/30 02:52:31;;;;;;;4.63;3.73;;;4.80;99.90;;;;;;4997919;28;20248;-76
2022/05/30 02:54:58;;;;;;;5.73;3.47;;;4.70;99.90;;;;;;5013943;28;20230;-77
2022/05/30 02:57:33;;;;;;;4.63;3.93;;;4.70;99.90;;;;;;5012420;28;20213;-77
2022/05/30 03:00:01;;;;;;;3.90;3.60;;;4.60;99.90;;;;;;5013167;28;20694;-76
2022/05/30 03:02:30;;;;;;;4.20;3.80;;;4.60;99.90;;;;;;5011376;28;20201;-77
2022/05/30 03:05:00;;;;;;;5.30;4.53;;;4.50;99.90;;;;;;5012760;28;20677;-77
2022/05/30 03:07:29;;;;;;;4.37;3.80;;;4.50;99.90;;;;;;5003538;28;20205;-77
2022/05/30 03:09:57;;;;;;;4.60;4.20;;;4.50;99.90;;;;;;4994475;28;20197;-76
2022/05/30 03:12:38;;;;;;;4.10;3.70;;;4.50;99.90;;;;;;4994811;28;20216;-76
2022/05/30 03:15:05;;;;;;;4.10;3.70;;;4.50;99.90;;;;;;4998711;28;20236;-77
2022/05/30 03:17:34;;;;;;;5.80;5.30;;;4.40;99.90;;;;;;4994366;28;20193;-77
2022/05/30 03:20:01;;;;;;;5.70;5.20;;;4.40;99.90;;;;;;4994545;28;20210;-77
2022/05/30 03:22:30;;;;;;;5.67;4.30;;;4.50;99.90;;;;;;4995224;28;20260;-77
2022/05/30 03:25:29;;;;;;;5.43;4.93;;;4.50;99.90;;;;;;4982049;28;20659;-76
2022/05/30 03:27:57;;;;;;;6.60;6.00;;;4.50;99.90;;;;;;4994059;28;20201;-77
2022/05/30 03:30:24;;;;;;;6.77;6.17;;;4.50;99.90;;;;;;4994530;28;20193;-77
2022/05/30 03:32:53;;;;;;;7.03;6.37;;;4.60;99.90;;;;;;4994059;28;20267;-77
2022/05/30 03:35:21;;;;;;;6.90;6.40;;;4.60;99.90;;;;;;4995260;28;20217;-76
2022/05/30 03:37:55;;;;;;;6.83;6.33;;;4.60;99.90;;;;;;4995706;28;20277;-76
2022/05/30 03:40:45;;;;;;;7.97;7.27;;;4.60;99.90;;;;;;4989663;28;20200;-77
2022/05/30 03:43:38;;;;;;;6.90;6.30;;;4.70;99.90;;;;;;4995447;28;20333;-77
2022/05/30 03:46:05;;;;;;;5.83;5.33;;;4.80;99.90;;;;;;4998762;28;20209;-77
2022/05/30 03:48:33;;;;;;;7.93;7.23;;;4.70;99.90;;;;;;4995036;28;20267;-77
2022/05/30 03:51:05;;;;;;;7.63;7.03;;;4.70;99.90;;;;;;4994166;28;20200;-77
2022/05/30 03:53:32;;;;;;;8.20;7.60;;;4.70;99.90;;;;;;4994503;28;20197;-77
2022/05/30 03:55:59;;;;;;;8.13;7.33;;;4.80;99.90;;;;;;4993941;28;20190;-77
2022/05/30 03:58:26;;;;;;;5.93;5.37;;;4.80;99.90;;;;;;4994175;28;20204;-77
2022/05/30 04:00:53;;;;;;;4.83;4.43;;;4.80;99.90;;;;;;4993754;28;20198;-77
2022/05/30 04:03:21;;;;;;;8.10;7.50;;;4.90;99.90;;;;;;4994050;28;20209;-77
2022/05/30 04:05:49;;;;;;;7.10;6.47;;;4.90;99.90;;;;;;4994254;28;20198;-77
2022/05/30 04:08:16;;;;;;;6.00;5.40;;;4.90;99.90;;;;;;4993192;28;20264;-76
2022/05/30 04:11:02;;;;;;;5.50;5.00;;;5.00;99.90;;;;;;4995899;28;20200;-77
2022/05/30 04:13:58;;;;;;;5.47;4.97;;;5.00;99.90;;;;;;4990207;28;20311;-77
2022/05/30 04:16:41;;;;;;;5.47;4.97;;;5.10;99.90;;;;;;4986785;28;20641;-76
2022/05/30 04:19:11;;;;;;;5.40;4.90;;;5.10;99.90;;;;;;4994604;28;20609;-77
2022/05/30 04:21:40;;;;;;;6.57;5.30;;;5.20;99.90;;;;;;4994280;28;20535;-77
2022/05/30 04:24:08;;;;;;;5.20;4.70;;;5.30;99.90;;;;;;4994843;28;20221;-77
2022/05/30 04:26:58;;;;;;;8.13;7.43;;;5.30;99.90;;;;;;4991206;28;20200;-77
2022/05/30 04:29:25;;;;;;;5.23;4.73;;;5.50;99.90;;;;;;4995536;28;20201;-77
2022/05/30 04:32:12;;;;;;;7.90;7.30;;;5.60;99.90;;;;;;4996216;28;20260;-77
2022/05/30 04:34:39;;;;;;;7.40;6.90;;;5.80;99.90;;;;;;4987944;28;20224;-77
2022/05/30 04:37:07;;;;;;;5.33;4.77;;;5.90;99.90;;;;;;4994771;28;20588;-77
2022/05/30 04:39:36;;;;;;;8.40;7.70;;;5.90;99.90;;;;;;4995934;28;20218;-77
2022/05/30 04:42:38;;;;;;;8.27;7.53;;;6.10;99.90;;;;;;4988345;28;20589;-77
2022/05/30 04:45:24;;;;;;;8.27;7.57;;;6.20;99.90;;;;;;5002460;28;20236;-77
2022/05/30 04:48:07;;;;;;;9.00;7.37;;;6.40;99.90;;;;;;4995538;28;20202;-77
2022/05/30 04:50:34;;;;;;;7.30;6.77;;;6.60;99.90;;;;;;4995039;28;20241;-77
2022/05/30 04:53:03;;;;;;;7.33;6.83;;;6.70;99.90;;;;;;4995501;28;20265;-77
2022/05/30 04:55:47;;;;;;;7.83;7.13;;;7.00;99.90;;;;;;4988577;28;20244;-77
2022/05/30 04:58:28;;;;;;;6.10;5.60;;;7.30;99.90;;;;;;4995743;28;20661;-77
2022/05/30 05:01:09;;;;;;;4.27;3.90;;;7.50;99.90;;;;;;5002743;28;20222;-77
2022/05/30 05:03:38;;;;;;;4.43;4.10;;;7.80;99.90;;;;;;5006781;28;20240;-77
2022/05/30 05:06:08;;;;;;;7.80;7.30;;;8.10;99.90;;;;;;4990831;28;20224;-77
2022/05/30 05:08:44;;;;;;;6.47;5.80;;;8.10;99.90;;;;;;4994986;28;20205;-77
2022/05/30 05:11:33;;;;;;;6.43;5.93;;;8.10;99.90;;;;;;4985057;28;20211;-77
2022/05/30 05:14:18;;;;;;;4.90;4.60;;;8.10;99.90;;;;;;4996816;28;20289;-77
2022/05/30 05:17:14;;;;;;;4.93;4.57;;;8.30;99.90;;;;;;5002225;28;20756;-77
2022/05/30 05:19:43;;;;;;;5.53;5.13;;;8.60;99.90;;;;;;4996331;28;20233;-77
2022/05/30 05:22:14;;;;;;;5.10;4.70;;;8.80;99.90;;;;;;4995687;28;20583;-77
2022/05/30 05:24:43;;;;;;;5.03;4.47;;;8.90;99.90;;;;;;4990357;28;20224;-78
2022/05/30 05:27:16;;;;;;;3.37;3.07;;;9.00;99.90;;;;;;5000603;28;20197;-77
2022/05/30 05:29:43;;;;;;;6.17;5.60;;;9.00;99.90;;;;;;4996081;28;20204;-77
2022/05/30 05:32:10;;;;;;;5.70;5.27;;;9.10;99.90;;;;;;4995633;28;20670;-77
2022/05/30 05:34:38;;;;;;;6.10;5.60;;;9.20;99.90;;;;;;4987782;28;20224;-77
2022/05/30 05:37:05;;;;;;;5.53;4.90;;;9.20;99.90;;;;;;4996598;28;20284;-77
2022/05/30 05:39:38;;;;;;;4.20;3.87;;;9.40;99.90;;;;;;4989932;28;20233;-77
2022/05/30 05:42:12;;;;;;;3.40;3.10;;;9.80;99.90;;;;;;4996992;28;20205;-77
2022/05/30 05:44:40;;;;;;;5.23;3.83;;;10.40;99.90;;;;;;4989220;28;20213;-77
2022/05/30 05:47:08;;;;;;;8.70;3.40;;;11.20;99.90;;;;;;4996504;28;20664;-78
2022/05/30 05:49:37;;;;;;;4.83;2.67;;;12.00;99.90;;;;;;4993281;28;20199;-78
2022/05/30 05:52:04;;;;;;;4.83;4.50;;;12.60;99.90;;;;;;4995085;28;20580;-78
2022/05/30 05:54:31;;;;;;;5.27;4.87;;;13.10;99.90;;;;;;4994029;28;20225;-78
2022/05/30 05:57:01;;;;;;;3.43;3.20;;;13.70;99.90;;;;;;4993774;28;20435;-78
2022/05/30 05:59:34;;;;;;;5.40;5.00;;;14.10;99.90;;;;;;4993816;28;20686;-78
2022/05/30 06:02:01;;;;;;;4.83;4.37;;;14.40;99.90;;;;;;4993424;28;20632;-78
2022/05/30 06:04:29;;;;;;;2.60;2.40;;;14.60;99.90;;;;;;4994986;28;20227;-78
2022/05/30 06:07:35;;;;;;;5.83;5.43;;;14.70;99.90;;;;;;4995230;28;20203;-78
2022/05/30 06:10:25;;;;;;;5.33;4.93;;;14.90;99.90;;;;;;4995519;28;20206;-78
2022/05/30 06:12:57;;;;;;;5.67;4.10;;;14.70;99.90;;;;;;4994994;28;20202;-78
2022/05/30 06:15:25;;;;;;;4.50;4.10;;;15.00;99.90;;;;;;4996858;28;20573;-78
2022/05/30 06:18:12;;;;;;;5.90;4.80;;;15.00;99.90;;;;;;4995063;28;20288;-78
2022/05/30 06:20:41;;;;;;;4.50;4.20;;;15.10;99.90;;;;;;4996488;28;20231;-78
2022/05/30 06:23:08;;;;;;;5.97;4.60;;;15.40;99.90;;;;;;4997737;28;20670;-78
2022/05/30 06:25:54;;;;;;;6.63;6.00;;;15.60;99.90;;;;;;4992069;28;20263;-78
2022/05/30 06:28:31;;;;;;;5.57;5.10;;;15.80;99.90;;;;;;5003498;28;20254;-78
2022/05/30 06:31:10;;;;;;;5.20;4.80;;;16.10;99.90;;;;;;4996110;28;20669;-78
2022/05/30 06:33:37;;;;;;;5.93;5.50;;;16.00;99.90;;;;;;4988207;28;20584;-78
2022/05/30 06:36:11;;;;;;;6.40;6.00;;;16.20;99.90;;;;;;4996279;28;20200;-77
2022/05/30 06:38:39;;;;;;;4.80;4.50;;;16.50;99.90;;;;;;4987954;28;20700;-77
2022/05/30 06:41:17;;;;;;;5.30;4.80;;;16.90;99.90;;;;;;4995213;28;20769;-77
2022/05/30 06:43:45;;;;;;;3.20;2.87;;;16.90;99.90;;;;;;4995356;28;20226;-77
2022/05/30 06:46:33;;;;;;;4.70;4.30;;;16.80;99.90;;;;;;4996981;28;20591;-79
2022/05/30 06:49:18;;;;;;;4.53;4.23;;;17.20;99.90;;;;;;4996960;28;20215;-77
2022/05/30 06:51:51;;;;;;;5.10;4.70;;;17.10;99.90;;;;;;4994990;28;20202;-77
2022/05/30 06:54:20;;;;;;;4.80;4.40;;;17.30;99.90;;;;;;4995619;28;20237;-77
2022/05/30 06:59:27;;;;;;;3.60;2.50;;;17.40;99.90;;;;;;4993906;28;20673;-77
2022/05/30 07:01:56;;;;;;;3.13;2.83;;;17.30;99.90;;;;;;4994878;28;20199;-77
2022/05/30 07:04:42;;;;;;;4.60;4.20;;;17.50;99.90;;;;;;4993165;28;20243;-77
2022/05/30 07:07:27;;;;;;;5.53;5.13;;;17.80;99.90;;;;;;4996208;28;20370;-77
2022/05/30 07:10:11;;;;;;;5.40;4.90;;;17.80;99.90;;;;;;4996155;28;21417;-77
2022/05/30 07:12:50;;;;;;;4.57;4.03;;;18.10;99.90;;;;;;4988540;28;20204;-77
2022/05/30 07:15:18;;;;;;;4.87;4.30;;;18.00;99.90;;;;;;5006866;28;20231;-77
2022/05/30 07:17:46;;;;;;;3.90;3.50;;;17.90;99.90;;;;;;4994511;28;21680;-77
2022/05/30 07:20:13;;;;;;;3.30;2.20;;;18.10;99.90;;;;;;4994427;28;20723;-77
2022/05/30 07:23:01;;;;;;;4.33;2.40;;;18.60;99.90;;;;;;4981674;28;20200;-77
2022/05/30 07:25:48;;;;;;;4.23;2.23;;;18.60;99.90;;;;;;4977235;28;20199;-77
2022/05/30 07:28:34;;;;;;;3.97;2.57;;;18.90;99.90;;;;;;4995870;28;20203;-77
2022/05/30 07:31:33;;;;;;;4.73;2.47;;;18.90;99.90;;;;;;4997243;28;20200;-77
2022/05/30 07:34:20;;;;;;;4.60;4.20;;;19.00;99.90;;;;;;4998483;28;20302;-77
2022/05/30 07:37:06;;;;;;;5.33;3.73;;;18.70;99.90;;;;;;4992138;28;20211;-77
2022/05/30 07:39:48;;;;;;;3.70;2.20;;;18.50;99.90;;;;;;4989187;28;20205;-77
2022/05/30 07:42:34;;;;;;;3.47;2.60;;;18.70;99.90;;;;;;4995466;28;20219;-78
2022/05/30 07:45:19;;;;;;;3.20;2.33;;;19.00;99.90;;;;;;4995625;28;20339;-78
2022/05/30 07:47:57;;;;;;;3.30;2.77;;;19.20;99.90;;;;;;4994317;28;20215;-77
2022/05/30 07:50:54;;;;;;;5.33;2.30;;;18.80;99.90;;;;;;4992156;28;20199;-78
2022/05/30 07:53:45;;;;;;;3.70;3.30;;;19.00;99.90;;;;;;4993025;28;20255;-77
2022/05/30 07:56:21;;;;;;;4.50;4.10;;;19.10;99.90;;;;;;4995431;28;20825;-78
2022/05/30 07:58:50;;;;;;;5.17;4.60;;;19.40;99.80;;;;;;4993903;28;20285;-77
2022/05/30 08:01:20;;;;;;;5.73;5.23;;;19.40;99.60;;;;;;5001405;28;20308;-77
2022/05/30 08:03:51;;;;;;;4.23;3.83;;;19.40;98.80;;;;;;4993424;28;20363;-78
2022/05/30 08:06:48;;;;;;;3.43;3.13;;;19.50;99.40;;;;;;4959081;28;20228;-78
2022/05/30 08:09:34;;;;;;;3.50;2.20;;;19.80;99.90;;;;;;4995273;28;20801;-78
2022/05/30 08:12:12;;;;;;;4.43;3.80;;;19.90;99.90;;;;;;4993086;28;20254;-78
2022/05/30 08:14:58;;;;;;;5.10;4.70;;;19.30;99.90;;;;;;4994952;28;20279;-77
2022/05/30 08:17:34;;;;;;;3.73;2.20;;;19.80;99.90;;;;;;4993605;28;20604;-77
2022/05/30 08:20:02;;;;;;;2.80;2.13;;;20.10;99.90;;;;;;4992071;28;20658;-77
2022/05/30 08:22:35;;;;;;;5.17;4.77;;;20.00;99.90;;;;;;4993244;28;20293;-78
2022/05/30 08:25:05;;;;;;;4.57;4.27;;;20.30;99.30;;;;;;4993273;28;20221;-79
2022/05/30 08:27:32;;;;;;;3.80;3.50;;;20.50;99.10;;;;;;4992936;28;20209;-78
2022/05/30 08:30:03;;;;;;;4.23;3.93;;;20.50;99.10;;;;;;5004437;28;20196;-78
2022/05/30 08:32:34;;;;;;;4.10;3.20;;;20.90;99.80;;;;;;4993032;28;20221;-78
2022/05/30 08:35:22;;;;;;;4.90;4.50;;;21.00;99.00;;;;;;4994631;28;20231;-78
2022/05/30 08:37:55;;;;;;;4.33;2.30;;;21.10;98.70;;;;;;4994402;28;20194;-77
2022/05/30 08:43:13;;;;;;;3.83;2.20;;;20.50;98.20;;;;;;4993178;28;20208;-78
2022/05/30 08:45:47;;;;;;;3.60;2.00;;;20.40;98.70;;;;;;4994151;28;20203;-78
2022/05/30 08:48:29;;;;;;;2.33;2.13;;;21.00;98.00;;;;;;4992946;28;20268;-78
2022/05/30 08:51:05;;;;;;;2.53;1.73;;;21.40;97.70;;;;;;5009981;28;20200;-78
2022/05/30 08:53:53;;;;;;;4.37;2.03;;;21.40;95.70;;;;;;4986022;28;20201;-78
2022/05/30 08:56:25;;;;;;;4.90;4.50;;;21.50;96.10;;;;;;4990709;28;20204;-77
2022/05/30 08:59:31;;;;;;;4.40;4.10;;;21.60;96.30;;;;;;4994483;28;20337;-78
2022/05/30 09:02:03;;;;;;;63.37;10.73;;;22.00;95.10;;;;;;4992567;28;20308;-77
2022/05/30 09:04:44;;;;;;;9.07;5.40;;;22.00;94.90;;;;;;4990324;28;20585;-78
2022/05/30 09:07:14;;;;;;;2.73;2.00;;;22.10;92.80;;;;;;4995467;28;20197;-78
2022/05/30 09:09:50;;;;;;;3.00;1.70;;;22.00;92.30;;;;;;4992138;28;20224;-78
2022/05/30 09:12:31;;;;;;;4.27;3.97;;;21.70;91.80;;;;;;4990491;28;20287;-78
2022/05/30 09:15:15;;;;;;;2.60;1.73;;;21.00;92.90;;;;;;4991906;28;20647;-78
2022/05/30 09:17:48;;;;;;;1.50;1.40;;;21.40;93.80;;;;;;4985246;28;20244;-77
2022/05/30 09:20:18;;;;;;;2.33;1.90;;;21.80;94.10;;;;;;4998298;28;20678;-78
2022/05/30 09:22:46;;;;;;;2.27;1.60;;;21.30;90.40;;;;;;4991903;28;20288;-77
2022/05/30 09:28:26;;;;;;;2.97;1.80;;;21.60;93.20;;;;;;4992962;28;20238;-78
2022/05/30 09:31:19;;;;;;;1.60;1.50;;;21.80;90.30;;;;;;4990491;28;20201;-77
2022/05/30 09:34:38;;;;;;;2.50;2.20;;;21.70;90.00;;;;;;4993174;28;20590;-78
2022/05/30 09:37:30;;;;;;;4.37;4.07;;;21.50;90.30;;;;;;4992743;28;20335;-78
2022/05/30 09:40:15;;;;;;;4.23;3.97;;;21.80;89.90;;;;;;4993386;28;20216;-78
2022/05/30 09:43:14;;;;;;;4.47;4.07;;;22.10;88.60;;;;;;4988357;28;20231;-77
2022/05/30 09:45:41;;;;;;;1.50;1.50;;;21.90;88.00;;;;;;4991222;28;20212;-78
2022/05/30 09:48:28;;;;;;;1.83;1.70;;;21.90;85.00;;;;;;4992046;28;20213;-78
2022/05/30 09:51:03;;;;;;;5.27;4.97;;;21.80;90.60;;;;;;4991236;28;20737;-78
2022/05/30 09:53:44;;;;;;;1.83;1.73;;;22.20;90.40;;;;;;4991560;28;20263;-78
2022/05/30 09:56:17;;;;;;;3.07;2.43;;;22.00;80.80;;;;;;4998354;28;20287;-77
2022/05/30 09:58:49;;;;;;;3.00;2.13;;;21.10;84.90;;;;;;4991797;28;20585;-78
2022/05/30 10:01:39;;;;;;;2.20;1.50;;;21.20;84.50;;;;;;4983770;28;20232;-78
2022/05/30 10:04:30;;;;;;;2.23;1.50;;;21.40;86.30;;;;;;4995193;28;20233;-77
2022/05/30 10:07:13;;;;;;;4.57;3.70;;;21.40;86.20;;;;;;4994835;28;20212;-77
2022/05/30 10:10:11;;;;;;;4.43;4.03;;;21.90;85.80;;;;;;4988246;28;20252;-77
2022/05/30 10:12:44;;;;;;;5.03;4.73;;;21.80;84.30;;;;;;4988423;28;20259;-77
2022/05/30 10:15:25;;;;;;;4.90;4.60;;;21.80;86.50;;;;;;4991372;28;20225;-77
2022/05/30 10:18:19;;;;;;;4.70;4.40;;;22.00;85.10;;;;;;4991803;28;20235;-77
2022/05/30 10:20:54;;;;;;;4.73;4.43;;;22.20;86.70;;;;;;4979272;28;20209;-77
2022/05/30 10:30:37;;;;;;;3.90;2.50;;;21.00;82.20;;;;;;4991648;28;20200;-77
2022/05/30 10:33:37;;;;;;;1.60;1.50;;;21.00;86.20;;;;;;4993381;28;20224;-77
2022/05/30 10:36:14;;;;;;;2.17;2.00;;;20.90;83.40;;;;;;4998950;28;20201;-77
2022/05/30 10:38:57;;;;;;;4.63;4.30;;;20.90;84.00;;;;;;4992689;28;20212;-77
2022/05/30 10:41:36;;;;;;;1.50;1.40;;;20.80;87.90;;;;;;4992318;28;20214;-78
2022/05/30 10:44:09;;;;;;;1.70;1.60;;;20.90;86.50;;;;;;4992731;28;20314;-78
2022/05/30 10:46:43;;;;;;;2.93;1.70;;;20.60;87.70;;;;;;4985716;28;20267;-77
2022/05/30 10:49:14;;;;;;;3.23;3.03;;;19.70;87.60;;;;;;4989621;28;20205;-78
2022/05/30 10:51:50;;;;;;;2.20;1.67;;;20.10;90.00;;;;;;4990402;28;20474;-78
2022/05/30 10:54:25;;;;;;;4.33;4.13;;;19.80;84.20;;;;;;4992447;28;20224;-77
2022/05/30 10:57:07;;;;;;;1.87;1.53;;;19.50;85.60;;;;;;4994164;28;20259;-77
2022/05/30 10:59:44;;;;;;;5.13;4.63;;;19.80;86.60;;;;;;4992787;28;20283;-77
2022/05/30 11:02:23;;;;;;;4.80;4.50;;;19.80;86.20;;;;;;4992978;28;20226;-78
2022/05/30 11:04:54;;;;;;;3.50;3.20;;;20.00;87.40;;;;;;4996176;28;20238;-77
2022/05/30 11:07:39;;;;;;;2.93;2.73;;;20.20;87.10;;;;;;4995770;28;20562;-77
2022/05/30 11:10:17;;;;;;;2.77;1.70;;;20.30;86.10;;;;;;4996249;28;20292;-77
2022/05/30 11:12:48;;;;;;;2.17;1.50;;;20.50;84.70;;;;;;4990157;28;20188;-77
2022/05/30 11:15:25;;;;;;;1.60;1.50;;;20.50;84.20;;;;;;4998530;28;20287;-78
2022/05/30 11:18:12;;;;;;;1.80;1.53;;;20.50;84.40;;;;;;4998930;28;20201;-79
2022/05/30 11:21:04;;;;;;;1.77;1.40;;;20.40;82.80;;;;;;4995727;28;20291;-78
2022/05/30 11:23:32;;;;;;;1.50;1.40;;;20.40;83.90;;;;;;4995719;28;20707;-78
2022/05/30 11:26:24;;;;;;;3.30;1.40;;;20.50;83.20;;;;;;5001778;28;20197;-78
2022/05/30 11:29:10;;;;;;;1.80;1.57;;;20.30;82.10;;;;;;4995412;28;20207;-78
2022/05/30 11:31:45;;;;;;;2.73;1.73;;;20.60;81.90;;;;;;4994729;28;20221;-78
2022/05/30 11:34:33;;;;;;;2.23;1.70;;;20.70;82.20;;;;;;4997066;28;20228;-77
2022/05/30 11:37:25;;;;;;;1.80;1.60;;;20.90;80.10;;;;;;4996919;28;20256;-79
2022/05/30 11:40:05;;;;;;;2.10;1.43;;;20.70;79.50;;;;;;4987364;28;20263;-78
2022/05/30 11:42:44;;;;;;;1.63;1.53;;;20.40;76.60;;;;;;4996466;28;20701;-78
2022/05/30 11:45:24;;;;;;;4.00;3.73;;;20.10;80.60;;;;;;4995411;28;20235;-78
2022/05/30 11:48:04;;;;;;;4.03;3.80;;;20.10;80.60;;;;;;4991195;28;20619;-77
2022/05/30 11:50:36;;;;;;;1.80;1.63;;;20.00;79.70;;;;;;4996511;28;20318;-78
2022/05/30 11:53:39;;;;;;;2.90;2.03;;;20.10;82.50;;;;;;4995162;28;20244;-78
2022/05/30 11:56:17;;;;;;;1.50;1.40;;;20.10;79.40;;;;;;4990793;28;20205;-77
2022/05/30 11:59:08;;;;;;;3.10;2.90;;;20.10;81.10;;;;;;4988023;28;20307;-78
2022/05/30 12:01:39;;;;;;;2.50;2.37;;;20.10;78.90;;;;;;4994305;28;20267;-78
2022/05/30 12:04:47;;;;;;;2.67;1.93;;;20.00;81.40;;;;;;4994585;28;20252;-78
2022/05/30 12:07:47;;;;;;;2.13;1.53;;;20.10;82.40;;;;;;4977850;28;20217;-78
2022/05/30 12:10:26;;;;;;;1.70;1.60;;;20.10;81.80;;;;;;4996171;28;20189;-78
2022/05/30 12:13:10;;;;;;;1.53;1.43;;;20.20;81.50;;;;;;4994263;28;20200;-78
2022/05/30 12:16:07;;;;;;;2.13;1.40;;;20.30;81.40;;;;;;4986501;28;20705;-78
2022/05/30 12:24:35;;;;;;;1.27;1.27;;;20.00;77.20;;;;;;4994142;28;20223;-78
2022/05/30 12:27:19;;;;;;;4.00;3.70;;;19.80;80.10;;;;;;4994068;28;20258;-78
2022/05/30 12:29:50;;;;;;;3.47;3.27;;;19.80;77.60;;;;;;4985849;28;20266;-77
2022/05/30 12:32:34;;;;;;;3.97;3.57;;;19.80;80.50;;;;;;4994514;28;20197;-78
2022/05/30 12:35:18;;;;;;;3.50;3.30;;;19.70;77.70;;;;;;5001029;28;20212;-77
2022/05/30 12:37:47;;;;;;;2.87;2.70;;;19.60;79.10;;;;;;4988306;28;20192;-78
2022/05/30 12:40:33;;;;;;;2.43;2.23;;;19.50;78.60;;;;;;4995416;28;20219;-77
2022/05/30 12:43:13;;;;;;;3.17;2.87;;;19.60;80.20;;;;;;4993486;28;20216;-78
2022/05/30 12:45:44;;;;;;;4.60;4.30;;;19.70;81.10;;;;;;4990449;28;20704;-77
2022/05/30 12:48:16;;;;;;;2.50;2.40;;;19.80;78.60;;;;;;4994797;28;20278;-78
2022/05/30 12:50:58;;;;;;;3.60;3.30;;;19.70;80.30;;;;;;4995250;28;20223;-79
2022/05/30 12:53:46;;;;;;;2.70;2.50;;;19.50;77.90;;;;;;4996172;28;20481;-77
2022/05/30 12:56:36;;;;;;;2.97;2.77;;;19.40;78.30;;;;;;4997737;28;20207;-77
2022/05/30 12:59:16;;;;;;;3.67;3.37;;;19.40;79.20;;;;;;4998865;28;20263;-78
2022/05/30 13:01:54;;;;;;;4.40;4.00;;;19.40;81.50;;;;;;4987347;28;20214;-77
2022/05/30 13:04:25;;;;;;;2.00;1.60;;;19.60;81.10;;;;;;4994555;28;20782;-77
2022/05/30 13:06:55;;;;;;;2.13;1.93;;;19.60;78.20;;;;;;4993773;28;20689;-78
2022/05/30 13:09:25;;;;;;;1.70;1.40;;;19.50;76.30;;;;;;4995744;28;20208;-77
2022/05/30 13:12:21;;;;;;;1.87;1.70;;;19.50;81.20;;;;;;4999196;28;20526;-77
2022/05/30 13:15:17;;;;;;;3.03;1.70;;;19.50;79.10;;;;;;4989591;28;20215;-77
2022/05/30 13:17:53;;;;;;;1.60;1.50;;;19.40;79.70;;;;;;4989284;28;20202;-77
2022/05/30 13:20:22;;;;;;;2.33;1.70;;;19.50;79.50;;;;;;4995910;28;20202;-77
2022/05/30 13:22:53;;;;;;;1.77;1.50;;;19.50;79.90;;;;;;4994351;28;20225;-76
2022/05/30 13:25:23;;;;;;;2.27;1.70;;;19.20;77.10;;;;;;4994849;28;20222;-76
2022/05/30 13:27:51;;;;;;;1.67;1.57;;;19.00;76.10;;;;;;4996131;28;20253;-76
2022/05/30 13:30:24;;;;;;;3.80;3.50;;;18.70;78.40;;;;;;4995970;28;20193;-76
2022/05/30 13:32:51;;;;;;;4.10;3.73;;;18.60;78.90;;;;;;4995400;28;20216;-77
2022/05/30 13:35:20;;;;;;;4.73;4.43;;;18.60;82.10;;;;;;4993722;28;20285;-77
2022/05/30 13:37:50;;;;;;;2.03;1.77;;;18.50;77.40;;;;;;4993950;28;20248;-77
2022/05/30 13:40:22;;;;;;;4.93;4.63;;;18.50;78.70;;;;;;4993322;28;20201;-77
2022/05/30 13:42:53;;;;;;;4.70;4.40;;;18.30;78.20;;;;;;4995159;28;20218;-78
2022/05/30 13:45:22;;;;;;;4.20;3.90;;;18.30;80.30;;;;;;4995392;28;20222;-77
2022/05/30 13:47:49;;;;;;;4.40;3.57;;;18.50;80.20;;;;;;5006755;28;20204;-77
2022/05/30 13:50:19;;;;;;;4.33;3.97;;;18.60;79.00;;;;;;4998735;28;20229;-77
2022/05/30 13:52:48;;;;;;;3.53;3.33;;;18.60;81.20;;;;;;4995103;28;20202;-77
2022/05/30 13:55:22;;;;;;;3.50;3.13;;;18.70;81.30;;;;;;4994713;28;20714;-77
2022/05/30 13:57:52;;;;;;;3.50;3.30;;;18.70;79.40;;;;;;4982377;28;20224;-77
2022/05/30 14:00:24;;;;;;;4.43;4.13;;;18.80;82.10;;;;;;4994420;28;20638;-77
2022/05/30 14:02:51;;;;;;;3.00;2.80;;;18.80;80.60;;;;;;4991682;28;20229;-77